sensor_id;sensor_type;location;lat;lon;timestamp;P1;durP1;ratioP1;P2;durP2;ratioP2
57627;SDS011;43451;49.060;10.616;2022-11-11T00:00:31;4.50;;;3.13;;
57627;SDS011;43451;49.060;10.616;2022-11-11T00:02:57;6.05;;;3.60;;
57627;SDS011;43451;49.060;10.616;2022-11-11T00:05:23;4.63;;;3.70;;
57627;SDS011;43451;49.060;10.616;2022-11-11T00:07:53;4.40;;;3.30;;
57627;SDS011;43451;49.060;10.616;2022-11-11T00:10:32;5.53;;;3.60;;
57627;SDS011;43451;49.060;10.616;2022-11-11T00:12:59;6.07;;;3.67;;
57627;SDS011;43451;49.060;10.616;2022-11-11T00:15:29;6.18;;;3.55;;
57627;SDS011;43451;49.060;10.616;2022-11-11T00:17:55;4.57;;;3.50;;
57627;SDS011;43451;49.060;10.616;2022-11-11T00:20:39;3.95;;;3.25;;
57627;SDS011;43451;49.060;10.616;2022-11-11T00:23:24;5.07;;;3.03;;
57627;SDS011;43451;49.060;10.616;2022-11-11T00:26:10;3.42;;;3.03;;
57627;SDS011;43451;49.060;10.616;2022-11-11T00:28:38;3.47;;;2.85;;
57627;SDS011;43451;49.060;10.616;2022-11-11T00:31:06;3.50;;;2.75;;
57627;SDS011;43451;49.060;10.616;2022-11-11T00:33:33;6.28;;;3.13;;
57627;SDS011;43451;49.060;10.616;2022-11-11T00:35:59;4.90;;;3.38;;
57627;SDS011;43451;49.060;10.616;2022-11-11T00:38:24;5.57;;;3.55;;
57627;SDS011;43451;49.060;10.616;2022-11-11T00:41:09;5.28;;;3.22;;
57627;SDS011;43451;49.060;10.616;2022-11-11T00:43:35;3.92;;;3.17;;
57627;SDS011;43451;49.060;10.616;2022-11-11T00:46:00;6.90;;;3.50;;
57627;SDS011;43451;49.060;10.616;2022-11-11T00:48:44;4.80;;;3.30;;
57627;SDS011;43451;49.060;10.616;2022-11-11T00:51:28;3.03;;;2.65;;
57627;SDS011;43451;49.060;10.616;2022-11-11T00:53:54;2.85;;;2.30;;
57627;SDS011;43451;49.060;10.616;2022-11-11T00:56:20;3.33;;;2.50;;
57627;SDS011;43451;49.060;10.616;2022-11-11T00:58:46;2.95;;;2.42;;
57627;SDS011;43451;49.060;10.616;2022-11-11T01:01:12;3.10;;;2.38;;
57627;SDS011;43451;49.060;10.616;2022-11-11T01:03:37;4.20;;;2.50;;
57627;SDS011;43451;49.060;10.616;2022-11-11T01:06:03;4.35;;;2.92;;
57627;SDS011;43451;49.060;10.616;2022-11-11T01:08:30;4.88;;;2.90;;
57627;SDS011;43451;49.060;10.616;2022-11-11T01:10:56;3.53;;;2.88;;
57627;SDS011;43451;49.060;10.616;2022-11-11T01:13:22;4.80;;;2.72;;
57627;SDS011;43451;49.060;10.616;2022-11-11T01:15:51;5.25;;;2.80;;
57627;SDS011;43451;49.060;10.616;2022-11-11T01:18:22;4.30;;;2.97;;
57627;SDS011;43451;49.060;10.616;2022-11-11T01:23:25;7.20;;;4.20;;
57627;SDS011;43451;49.060;10.616;2022-11-11T01:25:51;5.95;;;3.88;;
57627;SDS011;43451;49.060;10.616;2022-11-11T01:28:17;7.55;;;5.00;;
57627;SDS011;43451;49.060;10.616;2022-11-11T01:30:43;4.05;;;2.75;;
57627;SDS011;43451;49.060;10.616;2022-11-11T01:33:09;5.53;;;3.40;;
57627;SDS011;43451;49.060;10.616;2022-11-11T01:35:39;5.57;;;3.45;;
57627;SDS011;43451;49.060;10.616;2022-11-11T01:38:05;5.32;;;3.60;;
57627;SDS011;43451;49.060;10.616;2022-11-11T01:40:42;5.95;;;3.67;;
57627;SDS011;43451;49.060;10.616;2022-11-11T01:45:49;5.38;;;4.15;;
57627;SDS011;43451;49.060;10.616;2022-11-11T01:48:32;7.07;;;3.90;;
57627;SDS011;43451;49.060;10.616;2022-11-11T01:51:41;6.85;;;3.72;;
57627;SDS011;43451;49.060;10.616;2022-11-11T01:54:11;7.25;;;4.00;;
57627;SDS011;43451;49.060;10.616;2022-11-11T01:56:43;5.88;;;3.70;;
57627;SDS011;43451;49.060;10.616;2022-11-11T01:59:13;5.45;;;3.80;;
57627;SDS011;43451;49.060;10.616;2022-11-11T02:01:43;5.07;;;3.60;;
57627;SDS011;43451;49.060;10.616;2022-11-11T02:04:09;6.72;;;3.70;;
57627;SDS011;43451;49.060;10.616;2022-11-11T02:06:55;6.90;;;3.78;;
57627;SDS011;43451;49.060;10.616;2022-11-11T02:09:24;4.80;;;3.55;;
57627;SDS011;43451;49.060;10.616;2022-11-11T02:11:50;4.38;;;3.20;;
57627;SDS011;43451;49.060;10.616;2022-11-11T02:14:41;6.75;;;3.63;;
57627;SDS011;43451;49.060;10.616;2022-11-11T02:17:10;5.80;;;3.78;;
57627;SDS011;43451;49.060;10.616;2022-11-11T02:19:48;6.57;;;3.63;;
57627;SDS011;43451;49.060;10.616;2022-11-11T02:22:23;8.65;;;3.88;;
57627;SDS011;43451;49.060;10.616;2022-11-11T02:24:51;6.32;;;4.05;;
57627;SDS011;43451;49.060;10.616;2022-11-11T02:27:19;8.20;;;4.00;;
57627;SDS011;43451;49.060;10.616;2022-11-11T02:29:48;8.50;;;3.97;;
57627;SDS011;43451;49.060;10.616;2022-11-11T02:32:17;5.65;;;3.60;;
57627;SDS011;43451;49.060;10.616;2022-11-11T02:34:42;5.43;;;3.45;;
57627;SDS011;43451;49.060;10.616;2022-11-11T02:37:08;6.80;;;3.50;;
57627;SDS011;43451;49.060;10.616;2022-11-11T02:39:36;4.88;;;3.20;;
57627;SDS011;43451;49.060;10.616;2022-11-11T02:42:06;8.75;;;3.40;;
57627;SDS011;43451;49.060;10.616;2022-11-11T02:44:34;7.80;;;3.63;;
57627;SDS011;43451;49.060;10.616;2022-11-11T02:47:04;6.88;;;3.72;;
57627;SDS011;43451;49.060;10.616;2022-11-11T02:49:29;6.03;;;4.05;;
57627;SDS011;43451;49.060;10.616;2022-11-11T02:51:55;6.93;;;4.10;;
57627;SDS011;43451;49.060;10.616;2022-11-11T02:54:21;5.28;;;3.85;;
57627;SDS011;43451;49.060;10.616;2022-11-11T02:56:46;4.75;;;3.50;;
57627;SDS011;43451;49.060;10.616;2022-11-11T02:59:30;4.82;;;3.38;;
57627;SDS011;43451;49.060;10.616;2022-11-11T03:01:56;7.38;;;4.40;;
57627;SDS011;43451;49.060;10.616;2022-11-11T03:04:21;4.22;;;3.47;;
57627;SDS011;43451;49.060;10.616;2022-11-11T03:06:46;5.40;;;3.60;;
57627;SDS011;43451;49.060;10.616;2022-11-11T03:09:12;5.80;;;3.92;;
57627;SDS011;43451;49.060;10.616;2022-11-11T03:11:37;3.97;;;3.25;;
57627;SDS011;43451;49.060;10.616;2022-11-11T03:19:00;4.07;;;3.08;;
57627;SDS011;43451;49.060;10.616;2022-11-11T03:21:25;5.55;;;4.07;;
57627;SDS011;43451;49.060;10.616;2022-11-11T03:23:51;5.88;;;3.92;;
57627;SDS011;43451;49.060;10.616;2022-11-11T03:26:16;5.63;;;4.13;;
57627;SDS011;43451;49.060;10.616;2022-11-11T03:28:43;7.68;;;4.10;;
57627;SDS011;43451;49.060;10.616;2022-11-11T03:31:09;8.77;;;4.30;;
57627;SDS011;43451;49.060;10.616;2022-11-11T03:33:34;3.80;;;2.70;;
57627;SDS011;43451;49.060;10.616;2022-11-11T03:35:59;4.50;;;2.65;;
57627;SDS011;43451;49.060;10.616;2022-11-11T03:38:25;5.32;;;3.17;;
57627;SDS011;43451;49.060;10.616;2022-11-11T03:40:51;5.72;;;3.63;;
57627;SDS011;43451;49.060;10.616;2022-11-11T03:43:19;8.67;;;3.90;;
57627;SDS011;43451;49.060;10.616;2022-11-11T03:45:46;6.15;;;3.95;;
57627;SDS011;43451;49.060;10.616;2022-11-11T03:48:12;6.95;;;3.70;;
57627;SDS011;43451;49.060;10.616;2022-11-11T03:50:39;6.53;;;3.85;;
57627;SDS011;43451;49.060;10.616;2022-11-11T03:53:04;7.72;;;3.70;;
57627;SDS011;43451;49.060;10.616;2022-11-11T03:55:30;6.43;;;4.10;;
57627;SDS011;43451;49.060;10.616;2022-11-11T03:57:56;6.30;;;3.90;;
57627;SDS011;43451;49.060;10.616;2022-11-11T04:00:22;6.82;;;3.85;;
57627;SDS011;43451;49.060;10.616;2022-11-11T04:02:49;7.47;;;3.92;;
57627;SDS011;43451;49.060;10.616;2022-11-11T04:05:33;5.75;;;3.70;;
57627;SDS011;43451;49.060;10.616;2022-11-11T04:08:18;4.82;;;3.40;;
57627;SDS011;43451;49.060;10.616;2022-11-11T04:11:05;5.82;;;3.78;;
57627;SDS011;43451;49.060;10.616;2022-11-11T04:13:33;7.20;;;3.90;;
57627;SDS011;43451;49.060;10.616;2022-11-11T04:16:18;6.57;;;3.45;;
57627;SDS011;43451;49.060;10.616;2022-11-11T04:18:43;5.10;;;3.53;;
57627;SDS011;43451;49.060;10.616;2022-11-11T04:21:27;7.97;;;3.92;;
57627;SDS011;43451;49.060;10.616;2022-11-11T04:24:08;7.70;;;4.55;;
57627;SDS011;43451;49.060;10.616;2022-11-11T04:26:54;8.30;;;4.72;;
57627;SDS011;43451;49.060;10.616;2022-11-11T04:29:20;11.73;;;5.00;;
57627;SDS011;43451;49.060;10.616;2022-11-11T04:31:56;8.10;;;4.03;;
57627;SDS011;43451;49.060;10.616;2022-11-11T04:34:42;7.28;;;4.15;;
57627;SDS011;43451;49.060;10.616;2022-11-11T04:37:09;7.38;;;4.22;;
57627;SDS011;43451;49.060;10.616;2022-11-11T04:39:35;7.15;;;4.25;;
57627;SDS011;43451;49.060;10.616;2022-11-11T04:42:18;6.80;;;3.90;;
57627;SDS011;43451;49.060;10.616;2022-11-11T04:44:44;6.95;;;4.28;;
57627;SDS011;43451;49.060;10.616;2022-11-11T04:47:28;8.70;;;3.65;;
57627;SDS011;43451;49.060;10.616;2022-11-11T04:49:54;11.23;;;4.88;;
57627;SDS011;43451;49.060;10.616;2022-11-11T04:52:19;8.93;;;4.78;;
57627;SDS011;43451;49.060;10.616;2022-11-11T04:54:51;8.63;;;4.53;;
57627;SDS011;43451;49.060;10.616;2022-11-11T04:57:39;9.80;;;4.82;;
57627;SDS011;43451;49.060;10.616;2022-11-11T05:00:16;10.30;;;5.13;;
57627;SDS011;43451;49.060;10.616;2022-11-11T05:02:42;9.45;;;5.32;;
57627;SDS011;43451;49.060;10.616;2022-11-11T05:05:27;10.70;;;5.22;;
57627;SDS011;43451;49.060;10.616;2022-11-11T05:08:14;9.75;;;4.78;;
57627;SDS011;43451;49.060;10.616;2022-11-11T05:10:57;8.27;;;4.43;;
57627;SDS011;43451;49.060;10.616;2022-11-11T05:13:23;7.35;;;4.60;;
57627;SDS011;43451;49.060;10.616;2022-11-11T05:16:07;7.45;;;4.13;;
57627;SDS011;43451;49.060;10.616;2022-11-11T05:18:56;6.00;;;4.20;;
57627;SDS011;43451;49.060;10.616;2022-11-11T05:21:40;6.10;;;4.47;;
57627;SDS011;43451;49.060;10.616;2022-11-11T05:24:06;9.45;;;4.72;;
57627;SDS011;43451;49.060;10.616;2022-11-11T05:26:50;10.60;;;4.90;;
57627;SDS011;43451;49.060;10.616;2022-11-11T05:29:15;11.20;;;4.95;;
57627;SDS011;43451;49.060;10.616;2022-11-11T05:31:41;8.18;;;4.25;;
57627;SDS011;43451;49.060;10.616;2022-11-11T05:34:06;5.78;;;4.35;;
57627;SDS011;43451;49.060;10.616;2022-11-11T05:36:31;8.85;;;4.55;;
57627;SDS011;43451;49.060;10.616;2022-11-11T05:38:57;8.90;;;4.47;;
57627;SDS011;43451;49.060;10.616;2022-11-11T05:41:23;10.25;;;4.78;;
57627;SDS011;43451;49.060;10.616;2022-11-11T05:43:49;8.80;;;4.22;;
57627;SDS011;43451;49.060;10.616;2022-11-11T05:46:15;11.27;;;5.07;;
57627;SDS011;43451;49.060;10.616;2022-11-11T05:48:41;14.75;;;5.57;;
57627;SDS011;43451;49.060;10.616;2022-11-11T05:51:26;10.15;;;5.43;;
57627;SDS011;43451;49.060;10.616;2022-11-11T05:53:52;12.93;;;5.53;;
57627;SDS011;43451;49.060;10.616;2022-11-11T05:56:18;10.20;;;4.80;;
57627;SDS011;43451;49.060;10.616;2022-11-11T05:58:43;9.57;;;5.03;;
57627;SDS011;43451;49.060;10.616;2022-11-11T06:01:09;9.95;;;5.13;;
57627;SDS011;43451;49.060;10.616;2022-11-11T06:03:34;8.23;;;5.38;;
57627;SDS011;43451;49.060;10.616;2022-11-11T06:06:00;8.25;;;4.55;;
57627;SDS011;43451;49.060;10.616;2022-11-11T06:08:25;6.93;;;4.68;;
57627;SDS011;43451;49.060;10.616;2022-11-11T06:10:51;8.68;;;5.30;;
57627;SDS011;43451;49.060;10.616;2022-11-11T06:13:17;8.52;;;5.35;;
57627;SDS011;43451;49.060;10.616;2022-11-11T06:15:43;10.52;;;5.57;;
57627;SDS011;43451;49.060;10.616;2022-11-11T06:18:08;13.23;;;7.05;;
57627;SDS011;43451;49.060;10.616;2022-11-11T06:20:33;17.08;;;8.13;;
57627;SDS011;43451;49.060;10.616;2022-11-11T06:23:00;19.63;;;9.85;;
57627;SDS011;43451;49.060;10.616;2022-11-11T06:25:28;15.65;;;8.63;;
57627;SDS011;43451;49.060;10.616;2022-11-11T06:28:12;17.77;;;9.13;;
57627;SDS011;43451;49.060;10.616;2022-11-11T06:30:39;19.92;;;9.27;;
57627;SDS011;43451;49.060;10.616;2022-11-11T06:33:05;20.30;;;9.82;;
57627;SDS011;43451;49.060;10.616;2022-11-11T06:35:37;21.90;;;10.75;;
57627;SDS011;43451;49.060;10.616;2022-11-11T06:38:05;26.50;;;12.13;;
57627;SDS011;43451;49.060;10.616;2022-11-11T06:40:31;24.10;;;11.27;;
57627;SDS011;43451;49.060;10.616;2022-11-11T06:42:57;28.05;;;11.88;;
57627;SDS011;43451;49.060;10.616;2022-11-11T06:45:23;28.42;;;11.68;;
57627;SDS011;43451;49.060;10.616;2022-11-11T06:47:50;23.38;;;11.35;;
57627;SDS011;43451;49.060;10.616;2022-11-11T06:50:16;20.63;;;10.45;;
57627;SDS011;43451;49.060;10.616;2022-11-11T06:52:41;18.92;;;9.98;;
57627;SDS011;43451;49.060;10.616;2022-11-11T06:55:07;17.02;;;9.48;;
57627;SDS011;43451;49.060;10.616;2022-11-11T06:57:32;17.77;;;9.07;;
57627;SDS011;43451;49.060;10.616;2022-11-11T06:59:58;14.18;;;7.40;;
57627;SDS011;43451;49.060;10.616;2022-11-11T07:02:23;17.20;;;8.45;;
57627;SDS011;43451;49.060;10.616;2022-11-11T07:04:49;14.68;;;9.05;;
57627;SDS011;43451;49.060;10.616;2022-11-11T07:07:14;12.85;;;7.82;;
57627;SDS011;43451;49.060;10.616;2022-11-11T07:09:41;15.15;;;8.20;;
57627;SDS011;43451;49.060;10.616;2022-11-11T07:12:07;14.55;;;8.35;;
57627;SDS011;43451;49.060;10.616;2022-11-11T07:14:32;11.32;;;7.82;;
57627;SDS011;43451;49.060;10.616;2022-11-11T07:16:58;11.95;;;7.40;;
57627;SDS011;43451;49.060;10.616;2022-11-11T07:19:23;14.20;;;7.00;;
57627;SDS011;43451;49.060;10.616;2022-11-11T07:21:49;15.68;;;8.45;;
57627;SDS011;43451;49.060;10.616;2022-11-11T07:24:14;11.18;;;7.25;;
57627;SDS011;43451;49.060;10.616;2022-11-11T07:26:40;10.68;;;6.90;;
57627;SDS011;43451;49.060;10.616;2022-11-11T07:29:06;11.10;;;6.35;;
57627;SDS011;43451;49.060;10.616;2022-11-11T07:31:32;8.15;;;6.00;;
57627;SDS011;43451;49.060;10.616;2022-11-11T07:33:57;10.68;;;6.70;;
57627;SDS011;43451;49.060;10.616;2022-11-11T07:36:23;10.77;;;7.22;;
57627;SDS011;43451;49.060;10.616;2022-11-11T07:38:48;11.45;;;7.15;;
57627;SDS011;43451;49.060;10.616;2022-11-11T07:41:13;17.80;;;7.72;;
57627;SDS011;43451;49.060;10.616;2022-11-11T07:43:39;15.40;;;7.60;;
57627;SDS011;43451;49.060;10.616;2022-11-11T07:46:04;10.50;;;7.20;;
57627;SDS011;43451;49.060;10.616;2022-11-11T07:48:30;11.07;;;7.47;;
57627;SDS011;43451;49.060;10.616;2022-11-11T07:50:55;9.88;;;6.70;;
57627;SDS011;43451;49.060;10.616;2022-11-11T07:53:21;19.48;;;7.32;;
57627;SDS011;43451;49.060;10.616;2022-11-11T07:55:46;8.40;;;6.47;;
57627;SDS011;43451;49.060;10.616;2022-11-11T07:58:12;8.55;;;6.22;;
57627;SDS011;43451;49.060;10.616;2022-11-11T08:00:38;9.38;;;5.90;;
57627;SDS011;43451;49.060;10.616;2022-11-11T08:03:04;8.07;;;6.22;;
57627;SDS011;43451;49.060;10.616;2022-11-11T08:05:31;12.97;;;6.47;;
57627;SDS011;43451;49.060;10.616;2022-11-11T08:08:01;14.93;;;6.63;;
57627;SDS011;43451;49.060;10.616;2022-11-11T08:10:30;16.05;;;6.85;;
57627;SDS011;43451;49.060;10.616;2022-11-11T08:12:56;12.27;;;6.80;;
57627;SDS011;43451;49.060;10.616;2022-11-11T08:15:40;9.50;;;7.30;;
57627;SDS011;43451;49.060;10.616;2022-11-11T08:18:06;11.82;;;7.47;;
57627;SDS011;43451;49.060;10.616;2022-11-11T08:20:32;9.98;;;7.15;;
57627;SDS011;43451;49.060;10.616;2022-11-11T08:22:58;9.77;;;6.65;;
57627;SDS011;43451;49.060;10.616;2022-11-11T08:25:24;13.95;;;7.38;;
57627;SDS011;43451;49.060;10.616;2022-11-11T08:27:59;11.57;;;7.30;;
57627;SDS011;43451;49.060;10.616;2022-11-11T08:30:26;14.05;;;7.63;;
57627;SDS011;43451;49.060;10.616;2022-11-11T08:33:01;11.30;;;7.60;;
57627;SDS011;43451;49.060;10.616;2022-11-11T08:35:29;15.57;;;7.25;;
57627;SDS011;43451;49.060;10.616;2022-11-11T08:37:59;15.35;;;7.55;;
57627;SDS011;43451;49.060;10.616;2022-11-11T08:40:25;9.65;;;7.22;;
57627;SDS011;43451;49.060;10.616;2022-11-11T08:42:54;13.55;;;7.95;;
57627;SDS011;43451;49.060;10.616;2022-11-11T08:45:21;14.90;;;8.20;;
57627;SDS011;43451;49.060;10.616;2022-11-11T08:47:47;10.48;;;7.97;;
57627;SDS011;43451;49.060;10.616;2022-11-11T08:50:12;11.38;;;7.90;;
57627;SDS011;43451;49.060;10.616;2022-11-11T08:52:38;13.10;;;9.10;;
57627;SDS011;43451;49.060;10.616;2022-11-11T08:55:10;10.98;;;8.32;;
57627;SDS011;43451;49.060;10.616;2022-11-11T08:57:35;13.20;;;9.20;;
57627;SDS011;43451;49.060;10.616;2022-11-11T09:00:01;13.70;;;9.23;;
57627;SDS011;43451;49.060;10.616;2022-11-11T09:02:28;12.90;;;9.05;;
57627;SDS011;43451;49.060;10.616;2022-11-11T09:04:53;11.68;;;8.45;;
57627;SDS011;43451;49.060;10.616;2022-11-11T09:07:18;12.10;;;8.93;;
57627;SDS011;43451;49.060;10.616;2022-11-11T09:09:44;12.43;;;9.00;;
57627;SDS011;43451;49.060;10.616;2022-11-11T09:12:09;14.30;;;9.90;;
57627;SDS011;43451;49.060;10.616;2022-11-11T09:14:35;14.27;;;9.88;;
57627;SDS011;43451;49.060;10.616;2022-11-11T09:17:00;15.60;;;9.80;;
57627;SDS011;43451;49.060;10.616;2022-11-11T09:19:26;14.23;;;10.40;;
57627;SDS011;43451;49.060;10.616;2022-11-11T09:21:51;15.20;;;10.35;;
57627;SDS011;43451;49.060;10.616;2022-11-11T09:24:17;14.57;;;10.60;;
57627;SDS011;43451;49.060;10.616;2022-11-11T09:26:42;17.65;;;11.30;;
57627;SDS011;43451;49.060;10.616;2022-11-11T09:29:08;17.02;;;11.45;;
57627;SDS011;43451;49.060;10.616;2022-11-11T09:31:33;14.10;;;10.65;;
57627;SDS011;43451;49.060;10.616;2022-11-11T09:33:58;14.90;;;10.90;;
57627;SDS011;43451;49.060;10.616;2022-11-11T09:36:24;15.43;;;11.13;;
57627;SDS011;43451;49.060;10.616;2022-11-11T09:38:50;15.57;;;11.30;;
57627;SDS011;43451;49.060;10.616;2022-11-11T09:43:49;16.52;;;11.32;;
57627;SDS011;43451;49.060;10.616;2022-11-11T09:46:34;15.10;;;11.13;;
57627;SDS011;43451;49.060;10.616;2022-11-11T09:54:35;16.65;;;11.18;;
57627;SDS011;43451;49.060;10.616;2022-11-11T09:57:11;16.13;;;10.55;;
57627;SDS011;43451;49.060;10.616;2022-11-11T09:59:45;15.07;;;10.43;;
57627;SDS011;43451;49.060;10.616;2022-11-11T10:02:17;14.32;;;9.95;;
57627;SDS011;43451;49.060;10.616;2022-11-11T10:04:56;14.85;;;10.68;;
57627;SDS011;43451;49.060;10.616;2022-11-11T10:07:37;14.02;;;10.38;;
57627;SDS011;43451;49.060;10.616;2022-11-11T10:12:57;15.55;;;10.93;;
57627;SDS011;43451;49.060;10.616;2022-11-11T10:15:28;15.20;;;10.82;;
57627;SDS011;43451;49.060;10.616;2022-11-11T10:18:44;17.08;;;11.52;;
57627;SDS011;43451;49.060;10.616;2022-11-11T10:20:58;14.93;;;10.40;;
57627;SDS011;43451;49.060;10.616;2022-11-11T10:23:28;16.83;;;10.97;;
57627;SDS011;43451;49.060;10.616;2022-11-11T10:25:56;15.60;;;10.20;;
57627;SDS011;43451;49.060;10.616;2022-11-11T10:28:28;14.35;;;10.20;;
57627;SDS011;43451;49.060;10.616;2022-11-11T10:31:00;15.00;;;9.75;;
57627;SDS011;43451;49.060;10.616;2022-11-11T10:33:47;12.18;;;9.50;;
57627;SDS011;43451;49.060;10.616;2022-11-11T10:36:24;14.30;;;9.65;;
57627;SDS011;43451;49.060;10.616;2022-11-11T10:38:59;12.18;;;8.85;;
57627;SDS011;43451;49.060;10.616;2022-11-11T10:41:41;11.93;;;8.20;;
57627;SDS011;43451;49.060;10.616;2022-11-11T10:44:17;12.30;;;8.55;;
57627;SDS011;43451;49.060;10.616;2022-11-11T10:49:43;11.57;;;7.88;;
57627;SDS011;43451;49.060;10.616;2022-11-11T10:52:19;9.52;;;7.70;;
57627;SDS011;43451;49.060;10.616;2022-11-11T10:54:53;12.27;;;8.10;;
57627;SDS011;43451;49.060;10.616;2022-11-11T10:59:51;13.07;;;8.55;;
57627;SDS011;43451;49.060;10.616;2022-11-11T11:02:29;11.77;;;8.27;;
57627;SDS011;43451;49.060;10.616;2022-11-11T11:07:59;11.93;;;9.07;;
57627;SDS011;43451;49.060;10.616;2022-11-11T11:10:39;11.13;;;8.65;;
57627;SDS011;43451;49.060;10.616;2022-11-11T11:13:09;9.90;;;7.85;;
57627;SDS011;43451;49.060;10.616;2022-11-11T11:15:41;10.00;;;7.50;;
57627;SDS011;43451;49.060;10.616;2022-11-11T11:18:13;11.20;;;8.55;;
57627;SDS011;43451;49.060;10.616;2022-11-11T11:20:53;11.65;;;9.00;;
57627;SDS011;43451;49.060;10.616;2022-11-11T11:26:01;11.73;;;8.55;;
57627;SDS011;43451;49.060;10.616;2022-11-11T11:28:28;11.68;;;8.15;;
57627;SDS011;43451;49.060;10.616;2022-11-11T11:31:02;11.07;;;8.52;;
57627;SDS011;43451;49.060;10.616;2022-11-11T11:33:49;10.00;;;7.95;;
57627;SDS011;43451;49.060;10.616;2022-11-11T11:36:19;10.45;;;7.97;;
57627;SDS011;43451;49.060;10.616;2022-11-11T11:38:45;9.90;;;7.95;;
57627;SDS011;43451;49.060;10.616;2022-11-11T11:41:15;10.82;;;8.68;;
57627;SDS011;43451;49.060;10.616;2022-11-11T11:46:18;10.50;;;8.20;;
57627;SDS011;43451;49.060;10.616;2022-11-11T11:54:45;12.50;;;9.30;;
57627;SDS011;43451;49.060;10.616;2022-11-11T11:57:26;12.35;;;9.50;;
57627;SDS011;43451;49.060;10.616;2022-11-11T12:00:15;11.57;;;8.63;;
57627;SDS011;43451;49.060;10.616;2022-11-11T12:02:49;14.18;;;9.35;;
57627;SDS011;43451;49.060;10.616;2022-11-11T12:13:34;11.02;;;8.35;;
57627;SDS011;43451;49.060;10.616;2022-11-11T12:19:21;11.70;;;9.00;;
57627;SDS011;43451;49.060;10.616;2022-11-11T12:29:52;12.77;;;10.10;;
57627;SDS011;43451;49.060;10.616;2022-11-11T12:35:01;13.18;;;10.43;;
57627;SDS011;43451;49.060;10.616;2022-11-11T12:38:03;15.55;;;10.88;;
57627;SDS011;43451;49.060;10.616;2022-11-11T12:40:52;13.77;;;10.77;;
57627;SDS011;43451;49.060;10.616;2022-11-11T12:46:22;13.13;;;10.63;;
57627;SDS011;43451;49.060;10.616;2022-11-11T12:49:07;11.98;;;9.30;;
57627;SDS011;43451;49.060;10.616;2022-11-11T12:54:44;11.20;;;9.20;;
57627;SDS011;43451;49.060;10.616;2022-11-11T12:57:23;11.05;;;9.38;;
57627;SDS011;43451;49.060;10.616;2022-11-11T13:00:03;12.05;;;9.45;;
57627;SDS011;43451;49.060;10.616;2022-11-11T13:05:21;13.18;;;9.48;;
57627;SDS011;43451;49.060;10.616;2022-11-11T13:16:01;11.40;;;8.90;;
57627;SDS011;43451;49.060;10.616;2022-11-11T13:21:15;12.27;;;9.50;;
57627;SDS011;43451;49.060;10.616;2022-11-11T13:23:46;12.75;;;9.75;;
57627;SDS011;43451;49.060;10.616;2022-11-11T13:26:34;13.75;;;9.63;;
57627;SDS011;43451;49.060;10.616;2022-11-11T13:32:10;15.50;;;9.95;;
57627;SDS011;43451;49.060;10.616;2022-11-11T13:34:39;12.18;;;9.82;;
57627;SDS011;43451;49.060;10.616;2022-11-11T13:37:07;15.00;;;10.77;;
57627;SDS011;43451;49.060;10.616;2022-11-11T13:39:46;12.95;;;10.27;;
57627;SDS011;43451;49.060;10.616;2022-11-11T13:42:18;13.02;;;9.95;;
57627;SDS011;43451;49.060;10.616;2022-11-11T13:44:49;12.48;;;9.82;;
57627;SDS011;43451;49.060;10.616;2022-11-11T13:47:18;11.80;;;10.00;;
57627;SDS011;43451;49.060;10.616;2022-11-11T13:50:11;12.73;;;10.52;;
57627;SDS011;43451;49.060;10.616;2022-11-11T13:52:53;16.67;;;11.18;;
57627;SDS011;43451;49.060;10.616;2022-11-11T13:55:24;12.45;;;10.38;;
57627;SDS011;43451;49.060;10.616;2022-11-11T13:57:58;13.00;;;10.55;;
57627;SDS011;43451;49.060;10.616;2022-11-11T14:00:26;13.70;;;11.27;;
57627;SDS011;43451;49.060;10.616;2022-11-11T14:05:48;12.75;;;10.80;;
57627;SDS011;43451;49.060;10.616;2022-11-11T14:13:48;12.10;;;10.30;;
57627;SDS011;43451;49.060;10.616;2022-11-11T14:16:56;12.38;;;10.68;;
57627;SDS011;43451;49.060;10.616;2022-11-11T14:24:08;12.23;;;10.23;;
57627;SDS011;43451;49.060;10.616;2022-11-11T14:26:34;13.20;;;9.70;;
57627;SDS011;43451;49.060;10.616;2022-11-11T14:28:59;12.40;;;9.93;;
57627;SDS011;43451;49.060;10.616;2022-11-11T14:39:51;11.55;;;9.25;;
57627;SDS011;43451;49.060;10.616;2022-11-11T14:42:41;10.55;;;8.68;;
57627;SDS011;43451;49.060;10.616;2022-11-11T14:45:50;12.82;;;9.18;;
57627;SDS011;43451;49.060;10.616;2022-11-11T14:47:55;10.35;;;8.48;;
57627;SDS011;43451;49.060;10.616;2022-11-11T14:53:14;11.32;;;8.15;;
57627;SDS011;43451;49.060;10.616;2022-11-11T14:55:43;10.02;;;8.68;;
57627;SDS011;43451;49.060;10.616;2022-11-11T14:58:17;9.75;;;8.25;;
57627;SDS011;43451;49.060;10.616;2022-11-11T15:00:49;13.52;;;9.10;;
57627;SDS011;43451;49.060;10.616;2022-11-11T15:03:24;17.55;;;10.25;;
57627;SDS011;43451;49.060;10.616;2022-11-11T15:06:04;10.43;;;9.05;;
57627;SDS011;43451;49.060;10.616;2022-11-11T15:14:09;10.75;;;8.82;;
57627;SDS011;43451;49.060;10.616;2022-11-11T15:16:57;10.38;;;8.93;;
57627;SDS011;43451;49.060;10.616;2022-11-11T15:27:30;10.52;;;8.77;;
57627;SDS011;43451;49.060;10.616;2022-11-11T15:35:28;11.27;;;9.07;;
57627;SDS011;43451;49.060;10.616;2022-11-11T15:38:00;10.77;;;9.15;;
57627;SDS011;43451;49.060;10.616;2022-11-11T15:40:45;9.48;;;8.40;;
57627;SDS011;43451;49.060;10.616;2022-11-11T15:43:14;13.40;;;8.98;;
57627;SDS011;43451;49.060;10.616;2022-11-11T15:45:40;9.60;;;8.40;;
57627;SDS011;43451;49.060;10.616;2022-11-11T15:48:12;11.55;;;8.35;;
57627;SDS011;43451;49.060;10.616;2022-11-11T15:50:44;10.27;;;7.88;;
57627;SDS011;43451;49.060;10.616;2022-11-11T15:53:12;12.90;;;9.70;;
57627;SDS011;43451;49.060;10.616;2022-11-11T15:55:40;11.93;;;9.38;;
57627;SDS011;43451;49.060;10.616;2022-11-11T15:58:15;15.00;;;11.13;;
57627;SDS011;43451;49.060;10.616;2022-11-11T16:00:50;17.73;;;12.00;;
57627;SDS011;43451;49.060;10.616;2022-11-11T16:05:46;15.55;;;10.48;;
57627;SDS011;43451;49.060;10.616;2022-11-11T16:08:14;15.25;;;10.60;;
57627;SDS011;43451;49.060;10.616;2022-11-11T16:10:44;13.68;;;10.55;;
57627;SDS011;43451;49.060;10.616;2022-11-11T16:13:19;12.68;;;9.82;;
57627;SDS011;43451;49.060;10.616;2022-11-11T16:15:46;14.88;;;10.25;;
57627;SDS011;43451;49.060;10.616;2022-11-11T16:21:30;13.40;;;10.63;;
57627;SDS011;43451;49.060;10.616;2022-11-11T16:24:03;16.77;;;10.27;;
57627;SDS011;43451;49.060;10.616;2022-11-11T16:26:43;16.85;;;10.18;;
57627;SDS011;43451;49.060;10.616;2022-11-11T16:29:12;14.95;;;10.88;;
57627;SDS011;43451;49.060;10.616;2022-11-11T16:31:39;14.45;;;11.18;;
57627;SDS011;43451;49.060;10.616;2022-11-11T16:37:00;15.43;;;10.20;;
57627;SDS011;43451;49.060;10.616;2022-11-11T16:39:26;15.68;;;10.98;;
57627;SDS011;43451;49.060;10.616;2022-11-11T16:41:52;15.05;;;10.93;;
57627;SDS011;43451;49.060;10.616;2022-11-11T16:46:59;16.67;;;11.15;;
57627;SDS011;43451;49.060;10.616;2022-11-11T16:49:33;14.80;;;10.55;;
57627;SDS011;43451;49.060;10.616;2022-11-11T16:52:10;15.27;;;10.57;;
57627;SDS011;43451;49.060;10.616;2022-11-11T16:54:39;23.15;;;11.25;;
57627;SDS011;43451;49.060;10.616;2022-11-11T16:57:22;13.07;;;10.02;;
57627;SDS011;43451;49.060;10.616;2022-11-11T16:59:55;15.00;;;10.32;;
57627;SDS011;43451;49.060;10.616;2022-11-11T17:02:25;15.40;;;9.45;;
57627;SDS011;43451;49.060;10.616;2022-11-11T17:04:51;12.40;;;8.50;;